Dennisville, NJ (08214)

12:43 AM EDT on August 26, 2016 (GMT -0400)
NonFedAWOS | | Change Station
Active Advisory: Air Quality Alert

Elev 41 ft 39.22 °N, 74.79 °W | Updated 20 minutes ago

Clear
Clear
73 °F
Feels Like 72 °F
N
5
Wind Variable Wind from SSW
Gusts 0.0 mph

Today
High -- | Low -- °F
--% Chance of Precip.
Yesterday
High -- | Low -- °F
Precip. -- in
Pressure 30.04 in
Visibility 10.0 miles
Clouds Clear
Heat Index 72 °F
Dew Point 68 °F
Humidity 83%
Rainfall in
Snow Depth Not available.
6:22 AM 7:38 PM
Last Quarter, 38% visible
METAR KMIV 260354Z AUTO 23003KT 10SM CLR 23/22 A3004 RMK AO2 SLP170 T02330217
Pressure 30.04 in
Visibility 10.0 miles
Clouds Clear
Heat Index 72 °F
Dew Point 68 °F
Humidity 83%
Rainfall in
Snow Depth Not available.
6:22 AM 7:38 PM
Last Quarter, 38% visible
METAR KMIV 260354Z AUTO 23003KT 10SM CLR 23/22 A3004 RMK AO2 SLP170 T02330217
A tropical disturbance pushing toward the Bahamas, is expected to develop into a tropical depression or storm, and will likely target Florida and the Gulf Coast this weekend into next week.

Right now, the disturbance remains a broad area of low pressure pushing through the Dominican Republic and Haiti, headed toward the southeast Bahamas. Rainfall totals over 3 inches (with locally higher amounts) are expected in HispaƱiola, particularly over elevated terrain.

10-Day Weather Forecast

Almanac

Astronomy

Aug. 26, 2016 Rise Set
Actual Time
Civil Twilight
Nautical Twilight
Astronomical Twilight
Moon
Length of Visible Light
Length of Day
Tomorrow will be .
, % of the Moon is Illuminated

Today's Extremes

State Highs State Lows

Community

WunderPhotos

Upload Photos

1,935,056 photos uploaded!

WunderBlog® & News

Nearby

Air Quality

  Air Quality AQ Index Pollutant
Not available.

Snow Depth

Station Depth Elevation

Earthquake Activity

City Distance Mag. Time & Date
Minimum magnitude displayed is 2.5.

Coastal Water Temperatures

Place Temperature

Stations

Nearby Weather Stations

Station Location Temp. Windchill Dew Point Humidity Wind Precip. Elev Updated Type
                   

Watches & Warnings

Air Quality Alert
Issued: National Weather Service

nnnn


hours.

Nnnn